sensor_id;sensor_type;location;lat;lon;timestamp;temperature;humidity
10046;DHT22;5063;50.878;4.742;2023-03-05T00:01:31;6.70;99.90
10046;DHT22;5063;50.878;4.742;2023-03-05T00:03:58;6.60;99.90
10046;DHT22;5063;50.878;4.742;2023-03-05T00:06:25;6.70;99.90
10046;DHT22;5063;50.878;4.742;2023-03-05T00:08:52;6.40;99.90
10046;DHT22;5063;50.878;4.742;2023-03-05T00:11:20;6.50;99.90
10046;DHT22;5063;50.878;4.742;2023-03-05T00:13:46;6.80;99.90
10046;DHT22;5063;50.878;4.742;2023-03-05T00:16:13;6.40;99.90
10046;DHT22;5063;50.878;4.742;2023-03-05T00:18:40;6.80;99.90
10046;DHT22;5063;50.878;4.742;2023-03-05T00:21:21;6.60;99.90
10046;DHT22;5063;50.878;4.742;2023-03-05T00:23:47;6.80;99.90
10046;DHT22;5063;50.878;4.742;2023-03-05T00:26:19;6.90;99.90
10046;DHT22;5063;50.878;4.742;2023-03-05T00:28:45;6.60;99.90
10046;DHT22;5063;50.878;4.742;2023-03-05T00:31:15;6.80;99.90
10046;DHT22;5063;50.878;4.742;2023-03-05T00:33:42;6.70;99.90
10046;DHT22;5063;50.878;4.742;2023-03-05T00:36:08;6.70;99.90
10046;DHT22;5063;50.878;4.742;2023-03-05T00:38:34;6.70;99.90
10046;DHT22;5063;50.878;4.742;2023-03-05T00:41:00;6.70;99.90
10046;DHT22;5063;50.878;4.742;2023-03-05T00:43:27;6.80;99.90
10046;DHT22;5063;50.878;4.742;2023-03-05T00:45:52;6.70;99.90
10046;DHT22;5063;50.878;4.742;2023-03-05T00:48:18;6.80;99.90
10046;DHT22;5063;50.878;4.742;2023-03-05T00:50:44;6.60;99.90
10046;DHT22;5063;50.878;4.742;2023-03-05T00:53:10;6.90;99.90
10046;DHT22;5063;50.878;4.742;2023-03-05T00:55:36;6.70;99.90
10046;DHT22;5063;50.878;4.742;2023-03-05T00:58:02;6.60;99.90
10046;DHT22;5063;50.878;4.742;2023-03-05T01:00:28;6.80;99.90
10046;DHT22;5063;50.878;4.742;2023-03-05T01:02:53;6.60;99.90
10046;DHT22;5063;50.878;4.742;2023-03-05T01:05:19;6.60;99.90
10046;DHT22;5063;50.878;4.742;2023-03-05T01:07:45;6.50;99.90
10046;DHT22;5063;50.878;4.742;2023-03-05T01:10:12;6.40;99.90
10046;DHT22;5063;50.878;4.742;2023-03-05T01:12:38;6.80;99.90
10046;DHT22;5063;50.878;4.742;2023-03-05T01:15:05;6.80;99.90
10046;DHT22;5063;50.878;4.742;2023-03-05T01:17:31;6.40;99.90
10046;DHT22;5063;50.878;4.742;2023-03-05T01:19:57;6.40;99.90
10046;DHT22;5063;50.878;4.742;2023-03-05T01:22:23;6.90;99.90
10046;DHT22;5063;50.878;4.742;2023-03-05T01:24:48;6.60;99.90
10046;DHT22;5063;50.878;4.742;2023-03-05T01:27:14;6.60;99.90
10046;DHT22;5063;50.878;4.742;2023-03-05T01:29:40;6.40;99.90
10046;DHT22;5063;50.878;4.742;2023-03-05T01:32:05;6.60;99.90
10046;DHT22;5063;50.878;4.742;2023-03-05T01:34:31;6.60;99.90
10046;DHT22;5063;50.878;4.742;2023-03-05T01:36:57;6.60;99.90
10046;DHT22;5063;50.878;4.742;2023-03-05T01:39:22;6.60;99.90
10046;DHT22;5063;50.878;4.742;2023-03-05T01:41:48;6.60;99.90
10046;DHT22;5063;50.878;4.742;2023-03-05T01:44:22;6.70;99.90
10046;DHT22;5063;50.878;4.742;2023-03-05T01:46:48;6.50;99.90
10046;DHT22;5063;50.878;4.742;2023-03-05T01:49:26;6.60;99.90
10046;DHT22;5063;50.878;4.742;2023-03-05T01:54:28;6.40;99.90
10046;DHT22;5063;50.878;4.742;2023-03-05T01:56:58;6.50;99.90
10046;DHT22;5063;50.878;4.742;2023-03-05T01:59:26;6.70;99.90
10046;DHT22;5063;50.878;4.742;2023-03-05T02:01:55;6.70;99.90
10046;DHT22;5063;50.878;4.742;2023-03-05T02:04:27;6.60;99.90
10046;DHT22;5063;50.878;4.742;2023-03-05T02:06:55;6.60;99.90
10046;DHT22;5063;50.878;4.742;2023-03-05T02:09:21;6.60;99.90
10046;DHT22;5063;50.878;4.742;2023-03-05T02:11:50;6.50;99.90
10046;DHT22;5063;50.878;4.742;2023-03-05T02:14:16;6.60;99.90
10046;DHT22;5063;50.878;4.742;2023-03-05T02:16:42;6.80;99.90
10046;DHT22;5063;50.878;4.742;2023-03-05T02:19:10;6.50;99.90
10046;DHT22;5063;50.878;4.742;2023-03-05T02:21:42;6.40;99.90
10046;DHT22;5063;50.878;4.742;2023-03-05T02:24:18;6.40;99.90
10046;DHT22;5063;50.878;4.742;2023-03-05T02:26:44;6.50;99.90
10046;DHT22;5063;50.878;4.742;2023-03-05T02:29:17;6.60;99.90
10046;DHT22;5063;50.878;4.742;2023-03-05T02:31:43;6.60;99.90
10046;DHT22;5063;50.878;4.742;2023-03-05T02:34:09;6.60;99.90
10046;DHT22;5063;50.878;4.742;2023-03-05T02:36:34;6.60;99.90
10046;DHT22;5063;50.878;4.742;2023-03-05T02:39:00;6.70;99.90
10046;DHT22;5063;50.878;4.742;2023-03-05T02:41:26;6.50;99.90
10046;DHT22;5063;50.878;4.742;2023-03-05T02:43:52;6.50;99.90
10046;DHT22;5063;50.878;4.742;2023-03-05T02:46:18;6.80;99.90
10046;DHT22;5063;50.878;4.742;2023-03-05T02:48:44;6.50;99.90
10046;DHT22;5063;50.878;4.742;2023-03-05T02:51:10;6.60;99.90
10046;DHT22;5063;50.878;4.742;2023-03-05T02:53:35;6.60;99.90
10046;DHT22;5063;50.878;4.742;2023-03-05T02:56:02;6.60;99.90
10046;DHT22;5063;50.878;4.742;2023-03-05T02:58:27;6.60;99.90
10046;DHT22;5063;50.878;4.742;2023-03-05T03:00:53;6.60;99.90
10046;DHT22;5063;50.878;4.742;2023-03-05T03:03:19;6.50;99.90
10046;DHT22;5063;50.878;4.742;2023-03-05T03:05:45;6.40;99.90
10046;DHT22;5063;50.878;4.742;2023-03-05T03:08:10;6.30;99.90
10046;DHT22;5063;50.878;4.742;2023-03-05T03:10:36;6.40;99.90
10046;DHT22;5063;50.878;4.742;2023-03-05T03:13:02;6.40;99.90
10046;DHT22;5063;50.878;4.742;2023-03-05T03:15:28;6.40;99.90
10046;DHT22;5063;50.878;4.742;2023-03-05T03:17:54;6.30;99.90
10046;DHT22;5063;50.878;4.742;2023-03-05T03:20:20;6.30;99.90
10046;DHT22;5063;50.878;4.742;2023-03-05T03:22:46;6.50;99.90
10046;DHT22;5063;50.878;4.742;2023-03-05T03:25:15;6.40;99.90
10046;DHT22;5063;50.878;4.742;2023-03-05T03:27:40;6.30;99.90
10046;DHT22;5063;50.878;4.742;2023-03-05T03:30:07;6.30;99.90
10046;DHT22;5063;50.878;4.742;2023-03-05T03:32:33;6.20;99.90
10046;DHT22;5063;50.878;4.742;2023-03-05T03:34:59;6.10;99.90
10046;DHT22;5063;50.878;4.742;2023-03-05T03:37:25;6.30;99.90
10046;DHT22;5063;50.878;4.742;2023-03-05T03:39:51;6.30;99.90
10046;DHT22;5063;50.878;4.742;2023-03-05T03:42:20;6.40;99.90
10046;DHT22;5063;50.878;4.742;2023-03-05T03:44:47;6.30;99.90
10046;DHT22;5063;50.878;4.742;2023-03-05T03:47:13;6.20;99.90
10046;DHT22;5063;50.878;4.742;2023-03-05T03:49:38;6.20;99.90
10046;DHT22;5063;50.878;4.742;2023-03-05T03:52:05;6.40;99.90
10046;DHT22;5063;50.878;4.742;2023-03-05T03:54:31;6.10;99.90
10046;DHT22;5063;50.878;4.742;2023-03-05T03:56:56;6.10;99.90
10046;DHT22;5063;50.878;4.742;2023-03-05T03:59:22;5.90;99.90
10046;DHT22;5063;50.878;4.742;2023-03-05T04:01:48;5.90;99.90
10046;DHT22;5063;50.878;4.742;2023-03-05T04:04:14;6.00;99.90
10046;DHT22;5063;50.878;4.742;2023-03-05T04:06:40;6.20;99.90
10046;DHT22;5063;50.878;4.742;2023-03-05T04:09:07;6.20;99.90
10046;DHT22;5063;50.878;4.742;2023-03-05T04:11:34;6.20;99.90
10046;DHT22;5063;50.878;4.742;2023-03-05T04:14:00;6.30;99.90
10046;DHT22;5063;50.878;4.742;2023-03-05T04:16:25;6.30;99.90
10046;DHT22;5063;50.878;4.742;2023-03-05T04:18:51;6.30;99.90
10046;DHT22;5063;50.878;4.742;2023-03-05T04:21:17;6.30;99.90
10046;DHT22;5063;50.878;4.742;2023-03-05T04:23:43;6.30;99.90
10046;DHT22;5063;50.878;4.742;2023-03-05T04:26:09;6.30;99.90
10046;DHT22;5063;50.878;4.742;2023-03-05T04:28:35;6.30;99.90
10046;DHT22;5063;50.878;4.742;2023-03-05T04:31:01;6.30;99.90
10046;DHT22;5063;50.878;4.742;2023-03-05T04:33:27;6.30;99.90
10046;DHT22;5063;50.878;4.742;2023-03-05T04:35:52;6.20;99.90
10046;DHT22;5063;50.878;4.742;2023-03-05T04:38:18;6.20;99.90
10046;DHT22;5063;50.878;4.742;2023-03-05T04:40:45;6.30;99.90
10046;DHT22;5063;50.878;4.742;2023-03-05T04:43:11;6.10;99.90
10046;DHT22;5063;50.878;4.742;2023-03-05T04:45:41;6.50;99.90
10046;DHT22;5063;50.878;4.742;2023-03-05T04:48:08;6.20;99.90
10046;DHT22;5063;50.878;4.742;2023-03-05T04:50:33;6.40;99.90
10046;DHT22;5063;50.878;4.742;2023-03-05T04:52:59;6.30;99.90
10046;DHT22;5063;50.878;4.742;2023-03-05T04:55:26;6.20;99.90
10046;DHT22;5063;50.878;4.742;2023-03-05T04:57:52;6.30;99.90
10046;DHT22;5063;50.878;4.742;2023-03-05T05:00:18;6.30;99.90
10046;DHT22;5063;50.878;4.742;2023-03-05T05:02:46;6.30;99.90
10046;DHT22;5063;50.878;4.742;2023-03-05T05:05:24;6.30;99.90
10046;DHT22;5063;50.878;4.742;2023-03-05T05:07:55;6.30;99.90
10046;DHT22;5063;50.878;4.742;2023-03-05T05:10:21;6.40;99.90
10046;DHT22;5063;50.878;4.742;2023-03-05T05:12:46;6.20;99.90
10046;DHT22;5063;50.878;4.742;2023-03-05T05:15:12;6.40;99.90
10046;DHT22;5063;50.878;4.742;2023-03-05T05:17:38;6.40;99.90
10046;DHT22;5063;50.878;4.742;2023-03-05T05:20:05;6.20;99.90
10046;DHT22;5063;50.878;4.742;2023-03-05T05:22:32;6.10;99.90
10046;DHT22;5063;50.878;4.742;2023-03-05T05:24:57;6.20;99.90
10046;DHT22;5063;50.878;4.742;2023-03-05T05:27:23;6.20;99.90
10046;DHT22;5063;50.878;4.742;2023-03-05T05:29:49;6.20;99.90
10046;DHT22;5063;50.878;4.742;2023-03-05T05:32:16;6.30;99.90
10046;DHT22;5063;50.878;4.742;2023-03-05T05:34:42;6.00;99.90
10046;DHT22;5063;50.878;4.742;2023-03-05T05:37:08;5.90;99.90
10046;DHT22;5063;50.878;4.742;2023-03-05T05:39:34;6.10;99.90
10046;DHT22;5063;50.878;4.742;2023-03-05T05:42:00;6.00;99.90
10046;DHT22;5063;50.878;4.742;2023-03-05T05:44:26;6.00;99.90
10046;DHT22;5063;50.878;4.742;2023-03-05T05:46:52;6.10;99.90
10046;DHT22;5063;50.878;4.742;2023-03-05T05:49:17;6.20;99.90
10046;DHT22;5063;50.878;4.742;2023-03-05T05:51:43;6.20;99.90
10046;DHT22;5063;50.878;4.742;2023-03-05T05:54:13;6.20;99.90
10046;DHT22;5063;50.878;4.742;2023-03-05T05:56:40;6.20;99.90
10046;DHT22;5063;50.878;4.742;2023-03-05T05:59:06;6.20;99.90
10046;DHT22;5063;50.878;4.742;2023-03-05T06:01:33;6.10;99.90
10046;DHT22;5063;50.878;4.742;2023-03-05T06:03:59;6.00;99.90
10046;DHT22;5063;50.878;4.742;2023-03-05T06:06:26;6.10;99.90
10046;DHT22;5063;50.878;4.742;2023-03-05T06:08:53;6.20;99.90
10046;DHT22;5063;50.878;4.742;2023-03-05T06:11:19;6.20;99.90
10046;DHT22;5063;50.878;4.742;2023-03-05T06:13:47;5.90;99.90
10046;DHT22;5063;50.878;4.742;2023-03-05T06:16:15;6.00;99.90
10046;DHT22;5063;50.878;4.742;2023-03-05T06:18:41;6.00;99.90
10046;DHT22;5063;50.878;4.742;2023-03-05T06:21:10;6.10;99.90
10046;DHT22;5063;50.878;4.742;2023-03-05T06:23:37;6.10;99.90
10046;DHT22;5063;50.878;4.742;2023-03-05T06:26:05;6.30;99.90
10046;DHT22;5063;50.878;4.742;2023-03-05T06:28:32;6.30;99.90
10046;DHT22;5063;50.878;4.742;2023-03-05T06:31:23;6.60;99.90
10046;DHT22;5063;50.878;4.742;2023-03-05T06:33:54;6.20;99.90
10046;DHT22;5063;50.878;4.742;2023-03-05T06:36:21;6.10;99.90
10046;DHT22;5063;50.878;4.742;2023-03-05T06:38:48;5.90;99.90
10046;DHT22;5063;50.878;4.742;2023-03-05T06:41:16;6.10;99.90
10046;DHT22;5063;50.878;4.742;2023-03-05T06:43:44;6.20;99.90
10046;DHT22;5063;50.878;4.742;2023-03-05T06:46:19;6.50;99.90
10046;DHT22;5063;50.878;4.742;2023-03-05T06:48:46;6.30;99.90
10046;DHT22;5063;50.878;4.742;2023-03-05T06:51:18;6.30;99.90
10046;DHT22;5063;50.878;4.742;2023-03-05T06:53:45;6.30;99.90
10046;DHT22;5063;50.878;4.742;2023-03-05T06:56:11;6.30;99.90
10046;DHT22;5063;50.878;4.742;2023-03-05T06:58:39;6.40;99.90
10046;DHT22;5063;50.878;4.742;2023-03-05T07:01:06;6.40;99.90
10046;DHT22;5063;50.878;4.742;2023-03-05T07:03:33;6.60;99.90
10046;DHT22;5063;50.878;4.742;2023-03-05T07:06:05;6.50;99.90
10046;DHT22;5063;50.878;4.742;2023-03-05T07:08:32;6.40;99.90
10046;DHT22;5063;50.878;4.742;2023-03-05T07:10:58;6.40;99.90
10046;DHT22;5063;50.878;4.742;2023-03-05T07:13:24;6.50;99.90
10046;DHT22;5063;50.878;4.742;2023-03-05T07:15:50;6.60;99.90
10046;DHT22;5063;50.878;4.742;2023-03-05T07:18:15;6.70;99.90
10046;DHT22;5063;50.878;4.742;2023-03-05T07:20:41;6.60;99.90
10046;DHT22;5063;50.878;4.742;2023-03-05T07:23:07;6.70;99.90
10046;DHT22;5063;50.878;4.742;2023-03-05T07:25:35;6.60;99.90
10046;DHT22;5063;50.878;4.742;2023-03-05T07:28:01;6.70;99.90
10046;DHT22;5063;50.878;4.742;2023-03-05T07:30:27;6.60;99.90
10046;DHT22;5063;50.878;4.742;2023-03-05T07:32:53;6.80;99.90
10046;DHT22;5063;50.878;4.742;2023-03-05T07:35:19;6.80;99.90
10046;DHT22;5063;50.878;4.742;2023-03-05T07:37:44;7.00;99.90
10046;DHT22;5063;50.878;4.742;2023-03-05T07:40:10;7.10;99.90
10046;DHT22;5063;50.878;4.742;2023-03-05T07:42:36;7.10;99.90
10046;DHT22;5063;50.878;4.742;2023-03-05T07:45:02;7.10;99.90
10046;DHT22;5063;50.878;4.742;2023-03-05T07:47:28;7.20;99.90
10046;DHT22;5063;50.878;4.742;2023-03-05T07:49:55;7.40;99.90
10046;DHT22;5063;50.878;4.742;2023-03-05T07:52:20;7.40;99.90
10046;DHT22;5063;50.878;4.742;2023-03-05T07:54:46;7.50;99.90
10046;DHT22;5063;50.878;4.742;2023-03-05T07:57:12;7.70;99.90
10046;DHT22;5063;50.878;4.742;2023-03-05T07:59:38;7.80;99.90
10046;DHT22;5063;50.878;4.742;2023-03-05T08:02:04;7.90;99.90
10046;DHT22;5063;50.878;4.742;2023-03-05T08:04:30;7.80;99.90
10046;DHT22;5063;50.878;4.742;2023-03-05T08:06:57;7.70;99.90
10046;DHT22;5063;50.878;4.742;2023-03-05T08:09:23;7.70;99.90
10046;DHT22;5063;50.878;4.742;2023-03-05T08:11:49;7.90;99.90
10046;DHT22;5063;50.878;4.742;2023-03-05T08:14:15;7.90;99.90
10046;DHT22;5063;50.878;4.742;2023-03-05T08:16:41;7.80;99.90
10046;DHT22;5063;50.878;4.742;2023-03-05T08:19:06;7.70;99.90
10046;DHT22;5063;50.878;4.742;2023-03-05T08:21:34;7.70;99.90
10046;DHT22;5063;50.878;4.742;2023-03-05T08:24:03;7.50;99.90
10046;DHT22;5063;50.878;4.742;2023-03-05T08:26:32;7.70;99.90
10046;DHT22;5063;50.878;4.742;2023-03-05T08:28:59;7.90;99.90
10046;DHT22;5063;50.878;4.742;2023-03-05T08:31:27;8.30;99.90
10046;DHT22;5063;50.878;4.742;2023-03-05T08:33:56;8.50;99.90
10046;DHT22;5063;50.878;4.742;2023-03-05T08:36:22;8.50;99.90
10046;DHT22;5063;50.878;4.742;2023-03-05T08:38:48;8.30;99.90
10046;DHT22;5063;50.878;4.742;2023-03-05T08:41:16;8.50;99.90
10046;DHT22;5063;50.878;4.742;2023-03-05T08:43:42;8.70;99.90
10046;DHT22;5063;50.878;4.742;2023-03-05T08:46:11;8.70;99.90
10046;DHT22;5063;50.878;4.742;2023-03-05T08:48:37;8.50;99.90
10046;DHT22;5063;50.878;4.742;2023-03-05T08:51:11;8.40;99.90
10046;DHT22;5063;50.878;4.742;2023-03-05T08:53:37;8.40;99.90
10046;DHT22;5063;50.878;4.742;2023-03-05T08:56:03;8.70;99.90
10046;DHT22;5063;50.878;4.742;2023-03-05T08:58:29;8.60;99.90
10046;DHT22;5063;50.878;4.742;2023-03-05T09:00:55;8.90;99.90
10046;DHT22;5063;50.878;4.742;2023-03-05T09:03:21;8.80;99.90
10046;DHT22;5063;50.878;4.742;2023-03-05T09:05:47;8.80;99.90
10046;DHT22;5063;50.878;4.742;2023-03-05T09:08:13;8.60;99.90
10046;DHT22;5063;50.878;4.742;2023-03-05T09:10:43;9.00;99.90
10046;DHT22;5063;50.878;4.742;2023-03-05T09:13:09;9.20;99.90
10046;DHT22;5063;50.878;4.742;2023-03-05T09:15:35;8.90;99.90
10046;DHT22;5063;50.878;4.742;2023-03-05T09:18:01;9.00;99.90
10046;DHT22;5063;50.878;4.742;2023-03-05T09:20:27;9.10;99.90
10046;DHT22;5063;50.878;4.742;2023-03-05T09:22:53;9.20;99.90
10046;DHT22;5063;50.878;4.742;2023-03-05T09:25:19;9.20;99.90
10046;DHT22;5063;50.878;4.742;2023-03-05T09:27:45;8.70;99.90
10046;DHT22;5063;50.878;4.742;2023-03-05T09:30:12;8.50;99.90
10046;DHT22;5063;50.878;4.742;2023-03-05T09:32:38;8.20;99.90
10046;DHT22;5063;50.878;4.742;2023-03-05T09:35:04;7.30;99.90
10046;DHT22;5063;50.878;4.742;2023-03-05T09:37:30;7.00;99.90
10046;DHT22;5063;50.878;4.742;2023-03-05T09:39:57;6.80;99.90
10046;DHT22;5063;50.878;4.742;2023-03-05T09:42:41;6.80;99.90
10046;DHT22;5063;50.878;4.742;2023-03-05T09:50:45;6.40;99.90
10046;DHT22;5063;50.878;4.742;2023-03-05T09:55:56;6.70;99.90
10046;DHT22;5063;50.878;4.742;2023-03-05T10:01:01;7.00;99.90
10046;DHT22;5063;50.878;4.742;2023-03-05T10:11:42;6.60;99.90
10046;DHT22;5063;50.878;4.742;2023-03-05T10:14:41;6.90;99.90
10046;DHT22;5063;50.878;4.742;2023-03-05T10:25:52;8.30;99.90
10046;DHT22;5063;50.878;4.742;2023-03-05T10:28:42;8.50;99.90
10046;DHT22;5063;50.878;4.742;2023-03-05T10:31:36;9.00;99.90
10046;DHT22;5063;50.878;4.742;2023-03-05T10:44:49;9.60;99.90
10046;DHT22;5063;50.878;4.742;2023-03-05T10:47:30;9.20;99.90
10046;DHT22;5063;50.878;4.742;2023-03-05T10:49:58;9.80;99.90
10046;DHT22;5063;50.878;4.742;2023-03-05T10:52:35;10.10;99.90
10046;DHT22;5063;50.878;4.742;2023-03-05T10:55:16;10.30;99.90
10046;DHT22;5063;50.878;4.742;2023-03-05T10:57:42;10.50;99.90
10046;DHT22;5063;50.878;4.742;2023-03-05T11:00:24;10.80;99.90
10046;DHT22;5063;50.878;4.742;2023-03-05T11:08:31;10.40;99.90
10046;DHT22;5063;50.878;4.742;2023-03-05T11:11:19;10.60;99.90
10046;DHT22;5063;50.878;4.742;2023-03-05T11:13:57;10.50;99.90
10046;DHT22;5063;50.878;4.742;2023-03-05T11:16:30;10.40;99.90
10046;DHT22;5063;50.878;4.742;2023-03-05T11:19:20;10.20;99.90
10046;DHT22;5063;50.878;4.742;2023-03-05T11:22:24;9.90;99.90
10046;DHT22;5063;50.878;4.742;2023-03-05T11:25:14;9.80;99.90
10046;DHT22;5063;50.878;4.742;2023-03-05T11:27:54;10.00;99.90
10046;DHT22;5063;50.878;4.742;2023-03-05T11:32:54;10.20;99.90
10046;DHT22;5063;50.878;4.742;2023-03-05T11:35:34;10.30;99.90
10046;DHT22;5063;50.878;4.742;2023-03-05T11:38:02;10.30;99.90
10046;DHT22;5063;50.878;4.742;2023-03-05T11:40:32;9.80;99.90
10046;DHT22;5063;50.878;4.742;2023-03-05T11:43:03;10.20;99.90
10046;DHT22;5063;50.878;4.742;2023-03-05T11:45:31;10.70;99.90
10046;DHT22;5063;50.878;4.742;2023-03-05T11:50:43;10.00;99.90
10046;DHT22;5063;50.878;4.742;2023-03-05T11:53:32;10.60;99.90
10046;DHT22;5063;50.878;4.742;2023-03-05T11:56:13;10.50;99.90
10046;DHT22;5063;50.878;4.742;2023-03-05T11:58:49;10.90;99.90
10046;DHT22;5063;50.878;4.742;2023-03-05T12:01:21;10.40;99.90
10046;DHT22;5063;50.878;4.742;2023-03-05T12:03:49;10.40;99.90
10046;DHT22;5063;50.878;4.742;2023-03-05T12:08:56;10.80;99.90
10046;DHT22;5063;50.878;4.742;2023-03-05T12:11:25;10.60;99.90
10046;DHT22;5063;50.878;4.742;2023-03-05T12:13:58;11.00;99.90
10046;DHT22;5063;50.878;4.742;2023-03-05T12:17:06;10.60;99.90
10046;DHT22;5063;50.878;4.742;2023-03-05T12:19:57;10.50;99.90
10046;DHT22;5063;50.878;4.742;2023-03-05T12:22:37;10.30;99.90
10046;DHT22;5063;50.878;4.742;2023-03-05T12:27:51;10.30;99.90
10046;DHT22;5063;50.878;4.742;2023-03-05T12:33:36;10.20;99.90
10046;DHT22;5063;50.878;4.742;2023-03-05T12:38:56;11.00;99.90
10046;DHT22;5063;50.878;4.742;2023-03-05T12:44:18;11.10;99.90
10046;DHT22;5063;50.878;4.742;2023-03-05T12:46:46;10.80;99.90
10046;DHT22;5063;50.878;4.742;2023-03-05T12:49:44;10.70;99.90
10046;DHT22;5063;50.878;4.742;2023-03-05T12:52:20;10.00;99.90
10046;DHT22;5063;50.878;4.742;2023-03-05T12:54:59;9.90;99.90
10046;DHT22;5063;50.878;4.742;2023-03-05T12:57:25;10.10;99.90
10046;DHT22;5063;50.878;4.742;2023-03-05T13:00:10;9.90;99.90
10046;DHT22;5063;50.878;4.742;2023-03-05T13:02:42;9.90;99.90
10046;DHT22;5063;50.878;4.742;2023-03-05T13:05:28;9.90;99.90
10046;DHT22;5063;50.878;4.742;2023-03-05T13:08:27;9.90;99.90
10046;DHT22;5063;50.878;4.742;2023-03-05T13:11:05;9.80;99.90
10046;DHT22;5063;50.878;4.742;2023-03-05T13:13:36;9.70;99.90
10046;DHT22;5063;50.878;4.742;2023-03-05T13:16:02;9.70;99.90
10046;DHT22;5063;50.878;4.742;2023-03-05T13:18:30;9.40;99.90
10046;DHT22;5063;50.878;4.742;2023-03-05T13:21:13;9.30;99.90
10046;DHT22;5063;50.878;4.742;2023-03-05T13:23:57;9.50;99.90
10046;DHT22;5063;50.878;4.742;2023-03-05T13:26:28;9.70;99.90
10046;DHT22;5063;50.878;4.742;2023-03-05T13:29:17;9.90;99.90
10046;DHT22;5063;50.878;4.742;2023-03-05T13:31:53;9.60;99.90
10046;DHT22;5063;50.878;4.742;2023-03-05T13:36:58;9.60;99.90
10046;DHT22;5063;50.878;4.742;2023-03-05T13:39:28;9.40;99.90
10046;DHT22;5063;50.878;4.742;2023-03-05T13:42:04;8.90;99.90
10046;DHT22;5063;50.878;4.742;2023-03-05T13:44:31;8.80;99.90
10046;DHT22;5063;50.878;4.742;2023-03-05T13:47:17;8.70;99.90
10046;DHT22;5063;50.878;4.742;2023-03-05T13:49:43;8.70;99.90
10046;DHT22;5063;50.878;4.742;2023-03-05T13:52:10;8.60;99.90
10046;DHT22;5063;50.878;4.742;2023-03-05T13:54:36;8.70;99.90
10046;DHT22;5063;50.878;4.742;2023-03-05T13:57:05;8.60;99.90
10046;DHT22;5063;50.878;4.742;2023-03-05T13:59:33;8.40;99.90
10046;DHT22;5063;50.878;4.742;2023-03-05T14:02:14;8.60;99.90
10046;DHT22;5063;50.878;4.742;2023-03-05T14:04:43;8.80;99.90
10046;DHT22;5063;50.878;4.742;2023-03-05T14:09:48;8.60;99.90
10046;DHT22;5063;50.878;4.742;2023-03-05T14:12:37;8.50;99.90
10046;DHT22;5063;50.878;4.742;2023-03-05T14:17:45;8.30;99.90
10046;DHT22;5063;50.878;4.742;2023-03-05T14:20:28;8.00;99.90
10046;DHT22;5063;50.878;4.742;2023-03-05T14:22:57;8.00;99.90
10046;DHT22;5063;50.878;4.742;2023-03-05T14:25:39;7.80;99.90
10046;DHT22;5063;50.878;4.742;2023-03-05T14:30:47;7.80;99.90
10046;DHT22;5063;50.878;4.742;2023-03-05T14:33:13;7.60;99.90
10046;DHT22;5063;50.878;4.742;2023-03-05T14:35:39;7.50;99.90
10046;DHT22;5063;50.878;4.742;2023-03-05T14:38:21;7.40;99.90
10046;DHT22;5063;50.878;4.742;2023-03-05T14:40:48;7.40;99.90
10046;DHT22;5063;50.878;4.742;2023-03-05T14:43:14;7.30;99.90
10046;DHT22;5063;50.878;4.742;2023-03-05T14:45:41;7.40;99.90
10046;DHT22;5063;50.878;4.742;2023-03-05T14:48:16;7.50;99.90
10046;DHT22;5063;50.878;4.742;2023-03-05T14:53:14;8.00;99.90
10046;DHT22;5063;50.878;4.742;2023-03-05T14:55:40;7.60;99.90
10046;DHT22;5063;50.878;4.742;2023-03-05T14:58:16;7.70;99.90
10046;DHT22;5063;50.878;4.742;2023-03-05T15:00:43;7.70;99.90
10046;DHT22;5063;50.878;4.742;2023-03-05T15:03:10;7.90;99.90
10046;DHT22;5063;50.878;4.742;2023-03-05T15:05:37;8.00;99.90
10046;DHT22;5063;50.878;4.742;2023-03-05T15:08:03;8.00;99.90
10046;DHT22;5063;50.878;4.742;2023-03-05T15:10:29;8.00;99.90
10046;DHT22;5063;50.878;4.742;2023-03-05T15:12:55;7.60;99.90
10046;DHT22;5063;50.878;4.742;2023-03-05T15:15:21;7.60;99.90
10046;DHT22;5063;50.878;4.742;2023-03-05T15:17:49;7.50;99.90
10046;DHT22;5063;50.878;4.742;2023-03-05T15:20:25;7.60;99.90
10046;DHT22;5063;50.878;4.742;2023-03-05T15:22:51;7.50;99.90
10046;DHT22;5063;50.878;4.742;2023-03-05T15:25:19;7.40;99.90
10046;DHT22;5063;50.878;4.742;2023-03-05T15:27:45;7.30;99.90
10046;DHT22;5063;50.878;4.742;2023-03-05T15:30:26;7.20;99.90
10046;DHT22;5063;50.878;4.742;2023-03-05T15:32:53;7.20;99.90
10046;DHT22;5063;50.878;4.742;2023-03-05T15:35:19;7.50;99.90
10046;DHT22;5063;50.878;4.742;2023-03-05T15:37:45;7.50;99.90
10046;DHT22;5063;50.878;4.742;2023-03-05T15:40:11;7.40;99.90
10046;DHT22;5063;50.878;4.742;2023-03-05T15:42:37;7.40;99.90
10046;DHT22;5063;50.878;4.742;2023-03-05T15:45:04;7.40;99.90
10046;DHT22;5063;50.878;4.742;2023-03-05T15:47:30;7.50;99.90
10046;DHT22;5063;50.878;4.742;2023-03-05T15:49:56;7.40;99.90
10046;DHT22;5063;50.878;4.742;2023-03-05T15:52:22;7.20;99.90
10046;DHT22;5063;50.878;4.742;2023-03-05T15:54:48;7.30;99.90
10046;DHT22;5063;50.878;4.742;2023-03-05T15:57:13;7.30;99.90
10046;DHT22;5063;50.878;4.742;2023-03-05T15:59:39;7.30;99.90
10046;DHT22;5063;50.878;4.742;2023-03-05T16:02:05;7.50;99.90
10046;DHT22;5063;50.878;4.742;2023-03-05T16:04:31;7.20;99.90
10046;DHT22;5063;50.878;4.742;2023-03-05T16:06:59;7.00;99.90
10046;DHT22;5063;50.878;4.742;2023-03-05T16:09:31;7.00;99.90
10046;DHT22;5063;50.878;4.742;2023-03-05T16:12:00;7.00;99.90
10046;DHT22;5063;50.878;4.742;2023-03-05T16:14:28;7.00;99.90
10046;DHT22;5063;50.878;4.742;2023-03-05T16:16:57;7.10;99.90
10046;DHT22;5063;50.878;4.742;2023-03-05T16:19:24;7.00;99.90
10046;DHT22;5063;50.878;4.742;2023-03-05T16:21:50;7.10;99.90
10046;DHT22;5063;50.878;4.742;2023-03-05T16:24:16;6.70;99.90
10046;DHT22;5063;50.878;4.742;2023-03-05T16:26:42;6.90;99.90
10046;DHT22;5063;50.878;4.742;2023-03-05T16:29:08;6.90;99.90
10046;DHT22;5063;50.878;4.742;2023-03-05T16:31:35;7.00;99.90
10046;DHT22;5063;50.878;4.742;2023-03-05T16:34:03;7.10;99.90
10046;DHT22;5063;50.878;4.742;2023-03-05T16:36:30;7.00;99.90
10046;DHT22;5063;50.878;4.742;2023-03-05T16:38:57;6.90;99.90
10046;DHT22;5063;50.878;4.742;2023-03-05T16:41:24;7.10;99.90
10046;DHT22;5063;50.878;4.742;2023-03-05T16:43:53;6.90;99.90
10046;DHT22;5063;50.878;4.742;2023-03-05T16:46:22;6.80;99.90
10046;DHT22;5063;50.878;4.742;2023-03-05T16:48:48;6.80;99.90
10046;DHT22;5063;50.878;4.742;2023-03-05T16:51:14;6.90;99.90
10046;DHT22;5063;50.878;4.742;2023-03-05T16:53:40;6.70;99.90
10046;DHT22;5063;50.878;4.742;2023-03-05T16:56:07;6.80;99.90
10046;DHT22;5063;50.878;4.742;2023-03-05T16:58:35;6.70;99.90
10046;DHT22;5063;50.878;4.742;2023-03-05T17:01:02;6.60;99.90
10046;DHT22;5063;50.878;4.742;2023-03-05T17:03:28;6.50;99.90
10046;DHT22;5063;50.878;4.742;2023-03-05T17:05:54;6.40;99.90
10046;DHT22;5063;50.878;4.742;2023-03-05T17:08:20;6.40;99.90
10046;DHT22;5063;50.878;4.742;2023-03-05T17:10:46;6.20;99.90
10046;DHT22;5063;50.878;4.742;2023-03-05T17:13:12;6.20;99.90
10046;DHT22;5063;50.878;4.742;2023-03-05T17:15:38;6.30;99.90
10046;DHT22;5063;50.878;4.742;2023-03-05T17:18:04;6.30;99.90
10046;DHT22;5063;50.878;4.742;2023-03-05T17:20:30;6.30;99.90
10046;DHT22;5063;50.878;4.742;2023-03-05T17:22:57;6.30;99.90
10046;DHT22;5063;50.878;4.742;2023-03-05T17:25:26;6.40;99.90
10046;DHT22;5063;50.878;4.742;2023-03-05T17:27:52;6.10;99.90
10046;DHT22;5063;50.878;4.742;2023-03-05T17:30:18;6.40;99.90